Time;durP1;ratioP1;P1;durP2;ratioP2;P2;SDS_P1;SDS_P2;PMS_P1;PMS_P2;Temp;Humidity;BMP_temperature;BMP_pressure;BME280_temperature;BME280_humidity;BME280_pressure;Samples;Min_cycle;Max_cycle;Signal;HPM_P1;HPM_P2
2023/10/08 00:00:51;;;;;;;10.20;3.47;;;;;;;-142.52;100.00;62712.56;6299056;28;20234;-72
2023/10/08 00:04:18;;;;;;;5.87;3.13;;;;;;;-142.52;100.00;62712.56;6293095;28;20227;-72
2023/10/08 00:07:42;;;;;;;5.33;3.40;;;;;;;-142.52;100.00;62712.56;6299793;28;20309;-71
2023/10/08 00:11:07;;;;;;;5.60;2.90;;;;;;;-142.52;100.00;62712.56;6294329;28;20632;-72
2023/10/08 00:14:28;;;;;;;3.20;2.90;;;;;;;-142.52;100.00;62712.56;6307256;28;20242;-71
2023/10/08 00:17:49;;;;;;;4.63;2.93;;;;;;;-142.52;100.00;62712.56;6302281;28;20230;-71
2023/10/08 00:21:17;;;;;;;5.37;3.13;;;;;;;-142.52;100.00;62712.56;6297611;28;20226;-72
2023/10/08 00:24:40;;;;;;;4.40;3.53;;;;;;;-142.52;100.00;62712.56;6297028;28;20222;-72
2023/10/08 00:28:02;;;;;;;7.40;3.60;;;;;;;-142.52;100.00;62712.56;6299704;28;20573;-72
2023/10/08 00:31:25;;;;;;;7.50;3.70;;;;;;;-142.52;100.00;62712.56;6299117;28;20226;-72
2023/10/08 00:34:46;;;;;;;9.23;2.87;;;;;;;-142.52;100.00;62712.56;6295784;28;20238;-72
2023/10/08 00:38:14;;;;;;;6.97;2.60;;;;;;;-142.52;100.00;62712.56;6273444;28;20227;-72
2023/10/08 00:41:38;;;;;;;7.73;3.63;;;;;;;-142.52;100.00;62712.56;6286362;28;21001;-72
2023/10/08 00:45:01;;;;;;;3.07;2.03;;;;;;;-142.52;100.00;62712.56;6300062;28;20853;-72
2023/10/08 00:48:28;;;;;;;8.53;3.20;;;;;;;-142.52;100.00;62712.56;6288861;28;20231;-72
2023/10/08 00:51:59;;;;;;;5.43;4.00;;;;;;;-142.52;100.00;62712.56;6307681;28;20242;-72
2023/10/08 00:55:28;;;;;;;4.37;2.87;;;;;;;-142.52;100.00;62712.56;6301153;28;20614;-72
2023/10/08 00:58:52;;;;;;;3.03;2.73;;;;;;;-142.52;100.00;62712.56;6301063;28;20238;-72
2023/10/08 01:02:19;;;;;;;3.37;2.30;;;;;;;-142.52;100.00;62712.56;6298092;28;20318;-73
2023/10/08 01:05:46;;;;;;;5.30;2.67;;;;;;;-142.52;100.00;62712.56;6296368;28;20325;-72
2023/10/08 01:09:18;;;;;;;4.57;2.13;;;;;;;-142.52;100.00;62712.56;6292799;28;20223;-72
2023/10/08 01:12:49;;;;;;;3.53;2.07;;;;;;;-142.52;100.00;62712.56;6282554;28;20250;-72
2023/10/08 01:16:09;;;;;;;4.30;2.00;;;;;;;-142.52;100.00;62712.56;6282555;28;20234;-72
2023/10/08 01:19:32;;;;;;;5.03;3.53;;;;;;;-142.52;100.00;62712.56;6280095;28;20235;-72
2023/10/08 01:22:57;;;;;;;5.47;2.03;;;;;;;-142.52;100.00;62712.56;6283994;28;20235;-72
2023/10/08 01:26:22;;;;;;;2.27;1.80;;;;;;;-142.52;100.00;62712.56;6303772;28;20353;-72
2023/10/08 01:29:44;;;;;;;6.27;2.73;;;;;;;-142.52;100.00;62712.56;6286419;28;20234;-72
2023/10/08 01:33:07;;;;;;;5.47;2.67;;;;;;;-142.52;100.00;62712.56;6303324;28;20596;-72
2023/10/08 01:36:28;;;;;;;3.87;2.13;;;;;;;-142.52;100.00;62712.56;6299515;28;20230;-72
2023/10/08 01:39:50;;;;;;;2.97;2.00;;;;;;;-142.52;100.00;62712.56;6303369;28;20295;-72
2023/10/08 01:43:13;;;;;;;3.73;2.33;;;;;;;-142.52;100.00;62712.56;6297561;28;20611;-72
2023/10/08 01:46:34;;;;;;;4.00;2.20;;;;;;;-142.52;100.00;62712.56;6298717;28;20249;-72
2023/10/08 01:50:04;;;;;;;3.53;2.20;;;;;;;-142.52;100.00;62712.56;6301935;28;20238;-72
2023/10/08 01:53:26;;;;;;;3.77;1.97;;;;;;;-142.52;100.00;62712.56;6296326;28;20353;-72
2023/10/08 01:56:50;;;;;;;5.07;1.90;;;;;;;-142.52;100.00;62712.56;6284792;28;20602;-72
2023/10/08 02:00:11;;;;;;;3.70;2.00;;;;;;;-142.52;100.00;62712.56;6285384;28;20230;-72
2023/10/08 02:03:37;;;;;;;6.47;2.20;;;;;;;-142.52;100.00;62712.56;6301316;28;20310;-72
2023/10/08 02:06:58;;;;;;;1.97;1.77;;;;;;;-142.52;100.00;62712.56;6306351;28;20226;-73
2023/10/08 02:10:19;;;;;;;3.37;2.07;;;;;;;-142.52;100.00;62712.56;6283426;28;20226;-72
2023/10/08 02:13:42;;;;;;;3.17;2.03;;;;;;;-142.52;100.00;62712.56;6299981;28;20261;-70
2023/10/08 02:17:06;;;;;;;2.50;1.50;;;;;;;-142.52;100.00;62712.56;6302535;28;21141;-72
2023/10/08 02:20:27;;;;;;;8.23;2.53;;;;;;;-142.52;100.00;62712.56;6303773;28;20234;-71
2023/10/08 02:23:48;;;;;;;3.50;2.23;;;;;;;-142.52;100.00;62712.56;6297897;28;20219;-72
2023/10/08 02:27:10;;;;;;;4.33;1.67;;;;;;;-142.52;100.00;62712.56;6301364;28;20230;-72
2023/10/08 02:30:32;;;;;;;4.80;2.63;;;;;;;-142.52;100.00;62712.56;6296957;28;20226;-71
2023/10/08 02:33:53;;;;;;;3.87;2.37;;;;;;;-142.52;100.00;62712.56;6300628;28;20305;-72
2023/10/08 02:37:15;;;;;;;2.43;1.90;;;;;;;-142.52;100.00;62712.56;6286064;28;20234;-73
2023/10/08 02:40:44;;;;;;;4.33;2.00;;;;;;;-142.52;100.00;62712.56;6288029;28;20230;-73
2023/10/08 02:44:05;;;;;;;3.63;1.50;;;;;;;-142.52;100.00;62712.56;6299774;28;20229;-72
2023/10/08 02:47:28;;;;;;;4.27;2.53;;;;;;;-142.52;100.00;62712.56;6292228;28;20313;-72
2023/10/08 02:50:49;;;;;;;3.30;2.27;;;;;;;-142.52;100.00;62712.56;6294259;28;20222;-72
2023/10/08 02:54:16;;;;;;;2.23;2.00;;;;;;;-142.52;100.00;62712.56;6294272;28;20914;-72
2023/10/08 02:57:37;;;;;;;1.37;1.23;;;;;;;-142.52;100.00;62712.56;6299144;28;20226;-72
2023/10/08 03:01:00;;;;;;;2.67;1.87;;;;;;;-142.52;100.00;62712.56;6290854;28;20226;-72
2023/10/08 03:04:22;;;;;;;2.63;1.57;;;;;;;-142.52;100.00;62712.56;6309696;28;20238;-72
2023/10/08 03:07:43;;;;;;;10.53;2.33;;;;;;;-142.52;100.00;62712.56;6283685;28;20238;-72
2023/10/08 03:11:05;;;;;;;12.33;3.13;;;;;;;-142.52;100.00;62712.56;6305345;28;20234;-72
2023/10/08 03:14:26;;;;;;;4.87;1.63;;;;;;;-142.52;100.00;62712.56;6296040;28;20262;-72
2023/10/08 03:17:50;;;;;;;7.87;2.40;;;;;;;-142.52;100.00;62712.56;6303793;28;20231;-72
2023/10/08 03:21:21;;;;;;;4.70;1.73;;;;;;;-142.52;100.00;62712.56;6306076;28;20219;-72
2023/10/08 03:24:41;;;;;;;2.80;1.73;;;;;;;-142.52;100.00;62712.56;6282889;28;20651;-72
2023/10/08 03:28:02;;;;;;;5.23;2.67;;;;;;;-142.52;100.00;62712.56;6303229;28;20514;-72
2023/10/08 03:31:44;;;;;;;3.83;1.53;;;;;;;-142.52;100.00;62712.56;6293180;28;20591;-73
2023/10/08 03:35:10;;;;;;;4.60;2.17;;;;;;;-142.52;100.00;62712.56;6288690;28;20226;-72
2023/10/08 03:38:44;;;;;;;7.10;1.47;;;;;;;-142.52;100.00;62712.56;6309067;28;20321;-72
2023/10/08 03:42:07;;;;;;;2.60;1.33;;;;;;;-142.52;100.00;62712.56;6305182;28;20234;-72
2023/10/08 03:49:14;;;;;;;2.07;1.50;;;;;;;-142.52;100.00;62712.56;6298892;28;20318;-72
2023/10/08 03:52:37;;;;;;;2.67;1.53;;;;;;;-142.52;100.00;62712.56;6300937;28;20222;-72
2023/10/08 03:56:05;;;;;;;1.00;0.70;;;;;;;-142.52;100.00;62712.56;6307550;28;20234;-72
2023/10/08 03:59:33;;;;;;;2.17;1.20;;;;;;;-142.52;100.00;62712.56;6303260;28;20246;-72
2023/10/08 04:03:00;;;;;;;3.43;1.47;;;;;;;-142.52;100.00;62712.56;6303169;28;20238;-72
2023/10/08 04:06:28;;;;;;;2.10;1.33;;;;;;;-142.52;100.00;62712.56;6308278;28;20242;-72
2023/10/08 04:09:55;;;;;;;4.13;1.83;;;;;;;-142.52;100.00;62712.56;6302938;28;20217;-71
2023/10/08 04:13:17;;;;;;;3.43;1.90;;;;;;;-142.52;100.00;62712.56;6301488;28;20227;-73
2023/10/08 04:16:39;;;;;;;2.10;1.73;;;;;;;-142.52;100.00;62712.56;6305243;28;20279;-72
2023/10/08 04:20:01;;;;;;;3.37;1.67;;;;;;;-142.52;100.00;62712.56;6300797;28;20234;-72
2023/10/08 04:23:22;;;;;;;3.80;1.93;;;;;;;-142.52;100.00;62712.56;6302426;28;20222;-72
2023/10/08 04:26:43;;;;;;;3.97;1.40;;;;;;;-142.52;100.00;62712.56;6304962;28;20230;-71
2023/10/08 04:30:10;;;;;;;2.40;1.47;;;;;;;-142.52;100.00;62712.56;6301700;28;20238;-72
2023/10/08 04:33:33;;;;;;;1.77;1.20;;;;;;;-142.52;100.00;62712.56;6298202;28;20648;-72
2023/10/08 04:36:54;;;;;;;4.03;1.73;;;;;;;-142.52;100.00;62712.56;6305271;28;20258;-72
2023/10/08 04:40:16;;;;;;;5.67;2.13;;;;;;;-142.52;100.00;62712.56;6303539;28;20234;-72
2023/10/08 04:43:38;;;;;;;4.43;1.53;;;;;;;-142.52;100.00;62712.56;6304199;28;20218;-73
2023/10/08 04:47:06;;;;;;;5.57;2.23;;;;;;;-142.52;100.00;62712.56;6302816;28;21813;-72
2023/10/08 04:50:30;;;;;;;7.57;2.40;;;;;;;-142.52;100.00;62712.56;6302279;28;20233;-72
2023/10/08 04:53:51;;;;;;;3.53;1.07;;;;;;;-142.52;100.00;62712.56;6305013;28;20747;-72
2023/10/08 04:57:15;;;;;;;1.87;0.97;;;;;;;-142.52;100.00;62712.56;6306136;28;20494;-72
2023/10/08 05:00:51;;;;;;;3.23;1.30;;;;;;;-142.52;100.00;62712.56;6298136;28;20222;-72
2023/10/08 05:04:26;;;;;;;3.80;1.70;;;;;;;-142.52;100.00;62712.56;6306116;28;20218;-72
2023/10/08 05:08:17;;;;;;;1.60;1.30;;;;;;;-142.52;100.00;62712.56;6305829;28;20226;-72
2023/10/08 05:11:46;;;;;;;3.13;1.87;;;;;;;-142.52;100.00;62712.56;6301932;28;20226;-73
2023/10/08 05:15:33;;;;;;;3.40;2.30;;;;;;;-142.52;100.00;62712.56;6299474;28;20230;-71
2023/10/08 05:19:25;;;;;;;3.53;1.77;;;;;;;-142.52;100.00;62712.56;6302450;28;20562;-71
2023/10/08 05:22:55;;;;;;;4.00;1.93;;;;;;;-142.52;100.00;62712.56;6301859;28;20596;-72
2023/10/08 05:26:30;;;;;;;3.37;1.93;;;;;;;-142.52;100.00;62712.56;6299722;28;20222;-71
2023/10/08 05:30:16;;;;;;;2.23;1.87;;;;;;;-142.52;100.00;62712.56;6298632;28;20226;-73
2023/10/08 05:33:59;;;;;;;3.30;2.27;;;;;;;-142.52;100.00;62712.56;6301445;28;20258;-71
2023/10/08 05:37:32;;;;;;;2.07;1.87;;;;;;;-142.52;100.00;62712.56;6294198;28;20512;-71
2023/10/08 05:41:27;;;;;;;4.27;1.57;;;;;;;-142.52;100.00;62712.56;6301084;28;20235;-71
2023/10/08 05:45:13;;;;;;;2.77;2.23;;;;;;;-142.52;100.00;62712.56;6297851;28;20226;-72
2023/10/08 05:48:38;;;;;;;4.67;1.50;;;;;;;-142.52;100.00;62712.56;6301859;28;20802;-71
2023/10/08 05:52:24;;;;;;;3.37;1.90;;;;;;;-142.52;100.00;62712.56;6303176;28;20552;-72
2023/10/08 05:56:00;;;;;;;11.20;3.63;;;;;;;-142.52;100.00;62712.56;6301576;28;20592;-71
2023/10/08 05:59:27;;;;;;;4.30;1.70;;;;;;;-142.52;100.00;62712.56;6298707;28;20254;-72
2023/10/08 06:03:07;;;;;;;2.87;1.90;;;;;;;-142.52;100.00;62712.56;6293601;28;20241;-72
2023/10/08 06:06:47;;;;;;;4.53;2.73;;;;;;;-142.52;100.00;62712.56;6297274;28;20238;-72
2023/10/08 06:10:26;;;;;;;2.53;2.33;;;;;;;-142.52;100.00;62712.56;6293544;28;20781;-72
2023/10/08 06:13:55;;;;;;;6.33;3.17;;;;;;;-142.52;100.00;62712.56;6300147;28;20250;-73
2023/10/08 06:17:34;;;;;;;4.27;2.17;;;;;;;-142.52;100.00;62712.56;6298602;28;20230;-73
2023/10/08 06:20:55;;;;;;;2.03;1.67;;;;;;;-142.52;100.00;62712.56;6265747;28;20239;-73
2023/10/08 06:24:16;;;;;;;7.13;5.70;;;;;;;-142.52;100.00;62712.56;6304251;28;20227;-72
2023/10/08 06:27:37;;;;;;;2.80;2.43;;;;;;;-142.52;100.00;62712.56;6301395;28;20226;-72
2023/10/08 06:30:58;;;;;;;2.70;1.80;;;;;;;-142.52;100.00;62712.56;6300156;28;20234;-72
2023/10/08 06:34:21;;;;;;;4.87;2.97;;;;;;;-142.52;100.00;62712.56;6301003;28;22146;-72
2023/10/08 06:37:42;;;;;;;3.67;1.80;;;;;;;-142.52;100.00;62712.56;6296839;28;20222;-72
2023/10/08 06:41:08;;;;;;;3.60;2.13;;;;;;;-142.52;100.00;62712.56;6296905;28;20352;-73
2023/10/08 06:44:29;;;;;;;3.90;2.20;;;;;;;-142.52;100.00;62712.56;6295982;28;20227;-71
2023/10/08 06:47:50;;;;;;;2.23;1.97;;;;;;;-142.52;100.00;62712.56;6297445;28;20325;-72
2023/10/08 06:51:14;;;;;;;2.70;1.40;;;;;;;-142.52;100.00;62712.56;6290184;28;20219;-72
2023/10/08 06:54:35;;;;;;;2.77;1.87;;;;;;;-142.52;100.00;62712.56;6302387;28;20230;-71
2023/10/08 06:57:55;;;;;;;2.17;1.43;;;;;;;-142.52;100.00;62712.56;6300851;28;22357;-72
2023/10/08 07:01:21;;;;;;;6.80;1.83;;;;;;;-142.52;100.00;62712.56;6297677;28;20544;-71
2023/10/08 07:04:43;;;;;;;3.57;2.30;;;;;;;-142.52;100.00;62712.56;6289512;28;20222;-72
2023/10/08 07:08:06;;;;;;;4.40;2.00;;;;;;;-142.52;100.00;62712.56;6303054;28;20238;-71
2023/10/08 07:11:27;;;;;;;1.63;1.10;;;;;;;-142.52;100.00;62712.56;6295344;28;20231;-72
2023/10/08 07:14:48;;;;;;;5.17;4.57;;;;;;;-142.52;100.00;62712.56;6299178;28;20234;-71
2023/10/08 07:18:12;;;;;;;7.50;6.17;;;;;;;-142.52;100.00;62712.56;6286543;28;20309;-71
2023/10/08 07:21:44;;;;;;;6.37;4.40;;;;;;;-142.52;100.00;62712.56;6300057;28;20495;-71
2023/10/08 07:25:08;;;;;;;4.07;3.10;;;;;;;-142.52;100.00;62712.56;6280064;28;20234;-71
2023/10/08 07:28:30;;;;;;;1.87;1.00;;;;;;;-142.52;100.00;62712.56;6300631;28;20222;-72
2023/10/08 07:31:52;;;;;;;1.23;1.10;;;;;;;-142.52;100.00;62712.56;6297801;28;20226;-72
2023/10/08 07:35:23;;;;;;;1.97;1.73;;;;;;;-142.52;100.00;62712.56;6302531;28;20230;-72
2023/10/08 07:38:44;;;;;;;2.77;0.87;;;;;;;-142.52;100.00;62712.56;6300825;28;20226;-71
2023/10/08 07:42:08;;;;;;;4.47;1.57;;;;;;;-142.52;100.00;62712.56;6296270;28;20230;-72
2023/10/08 07:45:28;;;;;;;3.17;1.73;;;;;;;-142.52;100.00;62712.56;6305777;28;20242;-72
2023/10/08 07:48:50;;;;;;;3.10;1.57;;;;;;;-142.52;100.00;62712.56;6301187;28;20219;-71
2023/10/08 07:52:15;;;;;;;2.30;1.33;;;;;;;-142.52;100.00;62712.56;6306300;28;20250;-71
2023/10/08 07:55:36;;;;;;;4.40;1.97;;;;;;;-142.52;100.00;62712.56;6308786;28;20226;-71
2023/10/08 07:58:58;;;;;;;4.80;2.57;;;;;;;-142.52;100.00;62712.56;6562718;22;23090;-72
2023/10/08 08:02:20;;;;;;;5.77;2.53;;;;;;;-142.52;100.00;62712.56;6280736;28;20511;-71
2023/10/08 08:05:41;;;;;;;16.43;2.43;;;;;;;-142.52;100.00;62712.56;6282669;28;20235;-71
2023/10/08 08:09:04;;;;;;;1.90;1.33;;;;;;;-142.52;100.00;62712.56;6283391;28;20491;-72
2023/10/08 08:12:28;;;;;;;2.77;1.53;;;;;;;-142.52;100.00;62712.56;6285814;28;20243;-71
2023/10/08 08:15:50;;;;;;;2.27;1.43;;;;;;;-142.52;100.00;62712.56;6277663;28;20671;-72
2023/10/08 08:19:12;;;;;;;5.93;1.80;;;;;;;-142.52;100.00;62712.56;6281025;28;20243;-72
2023/10/08 08:22:40;;;;;;;4.17;1.57;;;;;;;-142.52;100.00;62712.56;6284190;28;20318;-70
2023/10/08 08:26:11;;;;;;;2.97;1.50;;;;;;;-142.52;100.00;62712.56;6277368;28;20227;-71
2023/10/08 08:29:44;;;;;;;2.90;1.17;;;;;;;-142.52;100.00;62712.56;6279157;28;20250;-72
2023/10/08 08:33:10;;;;;;;1.57;1.40;;;;;;;-142.52;100.00;62712.56;6279184;28;20223;-72
2023/10/08 08:36:32;;;;;;;1.87;1.47;;;;;;;-142.52;100.00;62712.56;6280351;28;20234;-72
2023/10/08 08:39:53;;;;;;;2.73;1.50;;;;;;;-142.52;100.00;62712.56;6285640;28;20318;-73
2023/10/08 08:43:14;;;;;;;1.43;1.30;;;;;;;-142.52;100.00;62712.56;6278525;28;20227;-72
2023/10/08 08:46:37;;;;;;;1.20;1.10;;;;;;;-142.52;100.00;62712.56;6276363;28;20227;-71
2023/10/08 08:50:08;;;;;;;1.87;1.50;;;;;;;-142.52;100.00;62712.56;6276143;28;20574;-72
2023/10/08 08:53:29;;;;;;;1.53;0.97;;;;;;;-142.52;100.00;62712.56;6280544;28;20227;-72
2023/10/08 08:56:50;;;;;;;1.07;0.97;;;;;;;-142.52;100.00;62712.56;6282041;28;20232;-72
2023/10/08 09:00:14;;;;;;;1.80;1.10;;;;;;;-142.52;100.00;62712.56;6271420;28;20551;-73
2023/10/08 09:03:37;;;;;;;1.17;0.90;;;;;;;-142.52;100.00;62712.56;6276792;28;20235;-73
2023/10/08 09:06:59;;;;;;;1.07;0.97;;;;;;;-142.52;100.00;62712.56;6274902;28;20232;-72
2023/10/08 09:10:25;;;;;;;1.77;1.30;;;;;;;-142.52;100.00;62712.56;6277417;28;20240;-72
2023/10/08 09:13:46;;;;;;;3.20;1.23;;;;;;;-142.52;100.00;62712.56;6275207;28;20491;-72
2023/10/08 09:17:07;;;;;;;1.77;1.30;;;;;;;-142.52;100.00;62712.56;6280235;28;20234;-71
2023/10/08 09:20:28;;;;;;;1.70;1.40;;;;;;;-142.52;100.00;62712.56;6277775;28;20604;-72
2023/10/08 09:23:54;;;;;;;2.50;1.17;;;;;;;-142.52;100.00;62712.56;6278512;28;20226;-71
2023/10/08 09:27:15;;;;;;;1.83;1.30;;;;;;;-142.52;100.00;62712.56;6279077;28;20627;-72
2023/10/08 09:30:37;;;;;;;4.97;1.13;;;;;;;-142.52;100.00;62712.56;6282798;28;20223;-71
2023/10/08 09:33:58;;;;;;;1.10;0.90;;;;;;;-142.52;100.00;62712.56;6277233;28;20227;-71
2023/10/08 09:37:21;;;;;;;3.50;1.80;;;;;;;-142.52;100.00;62712.56;6281536;28;20223;-71
2023/10/08 09:40:44;;;;;;;4.23;3.27;;;;;;;-142.52;100.00;62712.56;6283321;28;20231;-71
2023/10/08 09:44:10;;;;;;;4.67;3.20;;;;;;;-142.52;100.00;62712.56;6278246;28;20512;-73
2023/10/08 09:47:36;;;;;;;1.50;1.00;;;;;;;-142.52;100.00;62712.56;6276898;28;20226;-71
2023/10/08 09:50:59;;;;;;;1.42;0.90;;;;;;;-142.52;100.00;62712.56;6276729;28;20326;-72
2023/10/08 09:54:25;;;;;;;1.95;1.02;;;;;;;-142.52;100.00;62712.56;6275812;28;20238;-71
2023/10/08 09:57:50;;;;;;;1.45;1.27;;;;;;;-142.52;100.00;62712.56;6276505;28;20250;-72
2023/10/08 10:01:12;;;;;;;0.60;0.50;;;;;;;-142.52;100.00;62712.56;6277424;28;20284;-72
2023/10/08 10:04:34;;;;;;;1.35;0.70;;;;;;;-142.52;100.00;62712.56;6279252;28;20231;-71
2023/10/08 10:07:56;;;;;;;1.10;0.93;;;;;;;-142.52;100.00;62712.56;6277078;28;20234;-72
2023/10/08 10:11:18;;;;;;;1.05;0.68;;;;;;;-142.52;100.00;62712.56;6277264;28;20226;-72
2023/10/08 10:14:44;;;;;;;0.98;0.90;;;;;;;-142.52;100.00;62712.56;6265696;28;20230;-71
2023/10/08 10:18:14;;;;;;;1.48;1.00;;;;;;;-142.52;100.00;62712.56;6280280;28;20227;-72
2023/10/08 10:21:35;;;;;;;1.40;1.00;;;;;;;-142.52;100.00;62712.56;6277958;28;20227;-72
2023/10/08 10:25:00;;;;;;;0.70;0.60;;;;;;;-142.52;100.00;62712.56;6276777;28;20234;-73
2023/10/08 10:28:24;;;;;;;2.15;0.63;;;;;;;-142.52;100.00;62712.56;6281674;28;20239;-72
2023/10/08 10:31:47;;;;;;;2.10;0.90;;;;;;;-142.52;100.00;62712.56;6280837;28;20234;-71
2023/10/08 10:35:11;;;;;;;1.10;0.93;;;;;;;-142.52;100.00;62712.56;6275631;28;20239;-71
2023/10/08 10:38:34;;;;;;;0.95;0.70;;;;;;;-142.52;100.00;62712.56;6271480;28;20235;-73
2023/10/08 10:41:57;;;;;;;1.38;0.73;;;;;;;-142.52;100.00;62712.56;6272471;28;20255;-73
2023/10/08 10:48:57;;;;;;;1.48;1.00;;;;;;;34.18;28.09;102602.28;6242126;27;20916;-72
2023/10/08 10:52:31;;;;;;;1.15;0.70;;;;;;;32.42;29.67;102589.75;6221312;28;20228;-73
2023/10/08 10:56:00;;;;;;;1.90;0.90;;;;;;;32.59;29.80;102594.44;6245629;28;20224;-72
2023/10/08 10:59:27;;;;;;;1.15;0.70;;;;;;;30.33;31.80;102579.84;6247361;28;20228;-72
2023/10/08 11:02:49;;;;;;;1.38;1.27;;;;;;;30.70;31.52;102578.94;6223723;28;20225;-72
2023/10/08 11:06:15;;;;;;;1.80;0.85;;;;;;;31.54;30.18;102576.34;6252176;28;20636;-72
2023/10/08 11:09:38;;;;;;;1.83;1.48;;;;;;;32.83;28.97;102579.41;6257782;28;20231;-72
2023/10/08 11:13:01;;;;;;;2.53;0.77;;;;;;;30.66;31.51;102566.53;6249034;28;20240;-72
2023/10/08 11:16:24;;;;;;;1.45;1.27;;;;;;;29.88;32.57;102561.50;6200958;28;20241;-72
2023/10/08 11:19:46;;;;;;;1.27;0.88;;;;;;;30.68;29.83;102569.09;6187302;28;20236;-72
2023/10/08 11:23:18;;;;;;;1.33;0.90;;;;;;;27.65;33.89;102556.03;6192351;28;20244;-72
2023/10/08 11:26:39;;;;;;;0.88;0.68;;;;;;;29.79;31.07;102552.56;6199912;28;20241;-72
2023/10/08 11:30:00;;;;;;;1.63;0.88;;;;;;;28.10;30.59;102550.88;6218574;28;20335;-71
2023/10/08 11:33:21;;;;;;;1.83;1.13;;;;;;;28.25;34.69;102551.50;6227420;28;20327;-71
2023/10/08 11:36:52;;;;;;;0.90;0.80;;;;;;;26.43;35.85;102564.13;6200774;28;20225;-71
2023/10/08 11:40:28;;;;;;;2.47;1.13;;;;;;;24.99;37.82;102567.81;6199601;28;20244;-72
2023/10/08 11:43:53;;;;;;;2.75;1.70;;;;;;;24.41;41.08;102562.16;6215604;28;20501;-72
2023/10/08 11:47:21;;;;;;;0.98;0.90;;;;;;;23.10;42.92;102562.19;6191949;28;20572;-73
2023/10/08 11:50:42;;;;;;;4.97;1.23;;;;;;;22.75;46.50;102577.25;6221937;28;20240;-73
2023/10/08 11:54:05;;;;;;;1.25;1.00;;;;;;;22.43;44.01;102576.34;6224321;28;20244;-73
2023/10/08 11:57:27;;;;;;;1.45;1.10;;;;;;;22.20;44.85;102579.78;6199512;28;20267;-78
2023/10/08 12:00:52;;;;;;;0.95;0.70;;;;;;;21.92;45.32;102561.06;6164137;28;20230;-72
2023/10/08 12:04:15;;;;;;;1.20;1.00;;;;;;;23.32;44.37;102547.69;6188503;28;20233;-74
2023/10/08 12:07:39;;;;;;;1.10;0.98;;;;;;;29.71;34.38;102530.53;6209215;28;20233;-75
2023/10/08 12:11:00;;;;;;;1.77;1.00;;;;;;;28.74;33.00;102552.00;6187322;28;20857;-75
2023/10/08 12:14:26;;;;;;;2.17;0.95;;;;;;;28.71;33.24;102560.72;6217648;28;20221;-75
2023/10/08 12:18:08;;;;;;;2.38;1.35;;;;;;;29.33;32.90;102553.81;6206548;28;20232;-75
2023/10/08 12:21:29;;;;;;;1.13;0.77;;;;;;;28.42;33.50;102556.44;6212357;28;20788;-75
2023/10/08 12:24:50;;;;;;;3.03;1.35;;;;;;;26.50;34.99;102534.59;6211098;28;20559;-74
2023/10/08 12:28:11;;;;;;;1.08;1.02;;;;;;;25.90;36.35;102535.06;6212108;28;20245;-74
2023/10/08 12:31:33;;;;;;;1.60;0.70;;;;;;;24.57;37.80;102526.19;6213095;28;20221;-74
2023/10/08 12:34:54;;;;;;;0.90;0.68;;;;;;;21.69;41.35;102527.84;6207603;28;20233;-74
2023/10/08 12:38:15;;;;;;;1.70;1.13;;;;;;;21.69;43.62;102516.00;6212160;28;20229;-75
2023/10/08 12:41:38;;;;;;;1.00;0.90;;;;;;;23.39;41.31;102523.06;6212849;28;20241;-74
2023/10/08 12:45:01;;;;;;;1.20;1.00;;;;;;;22.14;41.20;102536.53;6208190;28;20811;-75
2023/10/08 12:48:26;;;;;;;2.00;0.90;;;;;;;21.75;42.58;102543.66;6202951;28;20221;-74
2023/10/08 12:51:46;;;;;;;3.17;2.05;;;;;;;21.63;42.98;102553.25;6187659;28;20233;-76
2023/10/08 12:55:09;;;;;;;0.60;0.60;;;;;;;21.20;44.32;102547.91;6200540;28;20229;-73
2023/10/08 12:58:31;;;;;;;2.92;1.88;;;;;;;20.41;44.78;102533.50;6213462;28;20249;-73
2023/10/08 13:01:54;;;;;;;0.90;0.88;;;;;;;19.77;45.74;102548.31;6213812;28;20257;-75
2023/10/08 13:05:17;;;;;;;1.58;1.08;;;;;;;19.29;47.87;102549.59;6190004;28;20527;-75
2023/10/08 13:08:39;;;;;;;1.85;1.13;;;;;;;18.12;49.75;102554.59;6209723;28;20260;-75
2023/10/08 13:12:00;;;;;;;1.20;1.10;;;;;;;18.26;51.44;102548.69;6212032;28;20256;-75
2023/10/08 13:15:25;;;;;;;1.88;1.38;;;;;;;18.36;51.98;102571.41;6211437;28;20233;-74
2023/10/08 13:18:46;;;;;;;1.25;0.77;;;;;;;17.42;51.99;102580.16;6188928;28;20604;-74
2023/10/08 13:22:09;;;;;;;1.70;1.20;;;;;;;18.05;51.69;102583.47;6190767;28;20229;-75
2023/10/08 13:25:33;;;;;;;1.52;1.10;;;;;;;18.02;51.41;102581.88;6189299;28;20603;-73
2023/10/08 13:28:54;;;;;;;1.98;1.40;;;;;;;17.63;51.92;102580.09;6181128;28;20274;-69
2023/10/08 13:32:18;;;;;;;1.98;1.05;;;;;;;16.62;55.23;102573.78;6214041;28;20939;-69
2023/10/08 13:35:39;;;;;;;1.80;1.70;;;;;;;16.65;56.03;102573.50;6207801;28;20363;-70
2023/10/08 13:39:01;;;;;;;3.03;1.73;;;;;;;17.05;57.20;102573.56;6207057;28;20270;-69
2023/10/08 13:42:21;;;;;;;1.27;1.10;;;;;;;17.58;55.68;102567.91;6188365;28;20572;-71
2023/10/08 13:45:42;;;;;;;1.52;1.00;;;;;;;16.65;55.87;102559.88;6188208;28;20229;-70
2023/10/08 13:49:06;;;;;;;3.25;1.17;;;;;;;16.88;56.53;102573.31;6184651;28;21018;-69
2023/10/08 13:52:26;;;;;;;2.05;1.00;;;;;;;16.47;56.34;102574.19;6188673;28;20249;-67
2023/10/08 13:55:49;;;;;;;2.25;1.70;;;;;;;16.31;56.23;102574.66;6206039;28;20241;-69
2023/10/08 13:59:12;;;;;;;1.30;1.08;;;;;;;16.75;57.86;102577.13;6206105;28;20229;-74
2023/10/08 14:02:35;;;;;;;2.83;1.52;;;;;;;16.89;57.44;102583.25;6207206;28;20499;-74
2023/10/08 14:05:58;;;;;;;2.20;0.95;;;;;;;16.63;56.43;102580.06;6184243;28;20408;-70
2023/10/08 14:09:22;;;;;;;2.50;2.28;;;;;;;17.40;55.70;102579.44;6186711;28;20324;-70
2023/10/08 14:12:48;;;;;;;1.88;1.77;;;;;;;16.71;55.73;102581.13;6204989;28;21937;-70
2023/10/08 14:16:11;;;;;;;1.65;1.45;;;;;;;16.33;57.32;102582.69;6205337;28;20237;-70
2023/10/08 14:19:39;;;;;;;2.35;1.15;;;;;;;16.17;57.74;102584.97;6208408;28;20232;-70
2023/10/08 14:23:02;;;;;;;3.00;1.17;;;;;;;16.29;56.74;102590.25;6206236;28;20240;-72
2023/10/08 14:26:25;;;;;;;2.58;1.50;;;;;;;16.40;56.22;102571.16;6209174;28;20221;-70
2023/10/08 14:29:51;;;;;;;11.48;9.80;;;;;;;16.79;57.14;102567.69;6207473;28;20241;-69
2023/10/08 14:33:23;;;;;;;2.92;1.67;;;;;;;16.90;58.10;102561.31;6185763;28;20316;-70
2023/10/08 14:44:03;;;;;;;6.75;5.25;;;;;;;17.07;57.50;102571.56;6205575;28;20232;-70
2023/10/08 14:47:26;;;;;;;2.57;2.20;;;;;;;16.46;57.58;102562.44;6190794;28;20229;-69
2023/10/08 14:50:47;;;;;;;1.13;0.80;;;;;;;16.15;56.51;102559.75;6192816;28;20237;-69
2023/10/08 14:54:10;;;;;;;3.53;1.45;;;;;;;16.15;56.19;102541.59;6206680;28;20236;-70
2023/10/08 14:57:31;;;;;;;1.75;0.90;;;;;;;15.45;57.13;102546.66;6206114;28;20229;-70
2023/10/08 15:00:54;;;;;;;2.15;1.77;;;;;;;15.85;58.70;102509.69;6186455;28;20292;-72
2023/10/08 15:04:18;;;;;;;10.27;7.13;;;;;;;16.27;58.72;102529.63;6186202;28;20308;-72
2023/10/08 15:07:38;;;;;;;3.28;2.85;;;;;;;15.95;57.18;102518.81;6204662;28;20240;-70
2023/10/08 15:11:00;;;;;;;1.50;1.33;;;;;;;15.77;56.99;102544.84;6207798;28;20230;-73
2023/10/08 15:14:23;;;;;;;7.07;4.43;;;;;;;16.01;57.75;102544.63;6189613;28;20230;-73
2023/10/08 15:17:46;;;;;;;10.90;8.50;;;;;;;16.09;58.99;102530.34;6200343;28;20641;-71
2023/10/08 15:21:08;;;;;;;17.47;15.57;;;;;;;16.33;59.64;102536.44;6206509;28;20225;-70
2023/10/08 15:24:29;;;;;;;9.23;7.27;;;;;;;16.06;57.52;102546.97;6201163;28;20317;-70
2023/10/08 15:27:50;;;;;;;3.03;1.58;;;;;;;16.15;56.26;102522.53;6179979;28;20226;-69
2023/10/08 15:31:11;;;;;;;3.92;3.00;;;;;;;15.93;58.56;102500.91;6209768;28;20220;-71
2023/10/08 15:34:33;;;;;;;4.27;2.57;;;;;;;16.18;59.34;102530.44;6209447;28;20674;-73
2023/10/08 15:37:56;;;;;;;1.53;1.00;;;;;;;15.94;58.06;102530.69;6211868;28;20225;-70
2023/10/08 15:41:19;;;;;;;3.03;1.30;;;;;;;15.90;59.33;102531.94;6190197;28;20603;-72
2023/10/08 15:44:40;;;;;;;2.37;1.50;;;;;;;16.08;59.26;102543.13;6193030;28;20265;-70
2023/10/08 15:48:00;;;;;;;2.67;1.92;;;;;;;16.17;59.20;102538.72;6187525;28;20241;-72
2023/10/08 15:51:21;;;;;;;2.53;2.23;;;;;;;16.23;59.37;102521.91;6180823;28;20990;-70